Time;durP1;ratioP1;P1;durP2;ratioP2;P2;SDS_P1;SDS_P2;PMS_P1;PMS_P2;Temp;Humidity;BMP_temperature;BMP_pressure;BME280_temperature;BME280_humidity;BME280_pressure;Samples;Min_cycle;Max_cycle;Signal;HPM_P1;HPM_P2
2022/05/25 00:00:49;;;;;;;;;;;537.60;2406.40;;;;;;5117321;28;19903;-86
2022/05/25 00:03:14;;;;;;;;;;;512.30;2380.80;;;;;;5123301;28;19887;-85
2022/05/25 00:05:40;;;;;;;;;;;512.20;2380.80;;;;;;5129485;28;20002;-85
2022/05/25 00:08:09;;;;;;;;;;;512.10;2380.80;;;;;;5118415;28;19903;-86
2022/05/25 00:10:35;;;;;;;;;;;512.20;2380.80;;;;;;5117674;28;19907;-86
2022/05/25 00:13:01;;;;;;;;;;;512.10;2380.80;;;;;;5116903;28;19907;-86
2022/05/25 00:15:28;;;;;;;;;;;512.30;2380.80;;;;;;5117594;28;19930;-85
2022/05/25 00:17:54;;;;;;;;;;;512.50;2380.80;;;;;;5117986;28;19904;-85
2022/05/25 00:20:20;;;;;;;;;;;512.30;2380.80;;;;;;5116905;28;19904;-86
2022/05/25 00:22:47;;;;;;;;;;;512.40;2380.80;;;;;;5117315;28;19953;-86
2022/05/25 00:25:14;;;;;;;;;;;512.40;2380.80;;;;;;5117335;28;19949;-86
2022/05/25 00:27:39;;;;;;;;;;;512.40;2380.80;;;;;;5116984;28;19911;-86
2022/05/25 00:30:05;;;;;;;;;;;512.10;2380.80;;;;;;5122159;28;19904;-84
2022/05/25 00:32:31;;;;;;;;;;;512.00;2380.80;;;;;;5122273;28;20272;-85
2022/05/25 00:34:57;;;;;;;;;;;512.10;2380.80;;;;;;5118154;28;20264;-87
2022/05/25 00:37:22;;;;;;;;;;;;;;;;;;5116212;28;19952;-85
2022/05/25 00:39:48;;;;;;;;;;;;;;;;;;5117105;28;20002;-85
2022/05/25 00:42:16;;;;;;;;;;;487.10;2380.80;;;;;;5117495;28;19907;-86
2022/05/25 00:44:41;;;;;;;;;;;487.30;2380.80;;;;;;5116661;28;20379;-87
2022/05/25 00:47:08;;;;;;;;;;;487.20;2380.80;;;;;;5116558;28;19903;-85
2022/05/25 00:49:35;;;;;;;;;;;512.00;2380.80;;;;;;5116735;28;20374;-86
2022/05/25 00:52:06;;;;;;;;;;;487.10;2380.80;;;;;;5116281;28;19960;-85
2022/05/25 00:54:58;;;;;;;;;;;487.10;2380.80;;;;;;5116477;28;19939;-86
2022/05/25 00:57:32;;;;;;;;;;;487.00;2380.80;;;;;;5113094;28;19911;-86
2022/05/25 01:00:09;;;;;;;;;;;487.10;2380.80;;;;;;5116677;28;20010;-86
2022/05/25 01:02:36;;;;;;;;;;;487.10;2380.80;;;;;;5116115;28;20314;-87
2022/05/25 01:05:03;;;;;;;;;;;487.00;2380.80;;;;;;5115937;28;19927;-86
2022/05/25 01:07:40;;;;;;;;;;;487.10;2380.80;;;;;;5116044;28;19990;-86
2022/05/25 01:10:32;;;;;;;;;;;487.10;2380.80;;;;;;5116977;28;20233;-86
2022/05/25 01:13:07;;;;;;;;;;;486.90;2380.80;;;;;;5138712;28;19974;-83
2022/05/25 01:15:38;;;;;;;;;;;486.80;2380.80;;;;;;5138282;28;19891;-84
2022/05/25 01:18:07;;;;;;;;;;;486.90;2380.80;;;;;;5138674;28;19910;-85
2022/05/25 01:20:38;;;;;;;;;;;486.70;2380.80;;;;;;5130132;28;19949;-86
2022/05/25 01:23:06;;;;;;;;;;;486.80;2380.80;;;;;;5115830;28;19907;-86
2022/05/25 01:25:47;;;;;;;;;;;487.00;2380.80;;;;;;5115338;28;19904;-86
2022/05/25 01:28:21;;;;;;;;;;;486.80;2380.80;;;;;;5116890;28;19904;-86
2022/05/25 01:30:49;;;;;;;;;;;486.90;2380.80;;;;;;5116742;28;20352;-86
2022/05/25 01:33:19;;;;;;;;;;;486.80;2380.80;;;;;;5116474;28;19954;-86
2022/05/25 01:35:57;;;;;;;;;;;486.80;2380.80;;;;;;5116099;28;19908;-86
2022/05/25 01:38:22;;;;;;;;;;;486.70;2380.80;;;;;;5114736;28;19960;-86
2022/05/25 01:40:51;;;;;;;;;;;486.60;2380.80;;;;;;5115511;28;19903;-87
2022/05/25 01:43:16;;;;;;;;;;;486.60;2380.80;;;;;;5115541;28;19903;-85
2022/05/25 01:45:45;;;;;;;;;;;486.70;2380.80;;;;;;5115991;28;19910;-86
2022/05/25 01:48:12;;;;;;;;;;;486.60;2380.80;;;;;;5115013;28;19991;-86
2022/05/25 01:50:49;;;;;;;;;;;486.70;2380.80;;;;;;5115367;28;19993;-87
2022/05/25 01:53:17;;;;;;;;;;;486.50;2380.80;;;;;;5123235;28;19915;-86
2022/05/25 01:55:49;;;;;;;;;;;486.40;2380.80;;;;;;5114856;28;19950;-86
2022/05/25 01:58:16;;;;;;;;;;;461.70;2380.80;;;;;;5114774;28;19994;-86
2022/05/25 02:00:48;;;;;;;;;;;461.70;2380.80;;;;;;5114497;28;19903;-86
2022/05/25 02:06:17;;;;;;;;;;;461.70;2380.80;;;;;;5115921;28;19911;-86
2022/05/25 02:08:52;;;;;;;;;;;461.60;2380.80;;;;;;5114710;28;20328;-86
2022/05/25 02:11:21;;;;;;;;;;;461.70;2380.80;;;;;;5114608;28;19914;-86
2022/05/25 02:13:55;;;;;;;;;;;486.40;2380.80;;;;;;5114392;28;19907;-87
2022/05/25 02:16:41;;;;;;;;;;;461.70;2380.80;;;;;;5114642;28;20011;-86
2022/05/25 02:19:12;;;;;;;;;;;486.50;2380.80;;;;;;5114776;28;19903;-86
2022/05/25 02:21:45;;;;;;;;;;;486.70;2380.80;;;;;;5114333;28;19926;-87
2022/05/25 02:24:15;;;;;;;;;;;486.50;2380.80;;;;;;5117743;28;19922;-87
2022/05/25 02:26:52;;;;;;;;;;;461.70;2380.80;;;;;;5118492;28;19907;-86
2022/05/25 02:29:18;;;;;;;;;;;461.70;2380.80;;;;;;5118730;28;19904;-88
2022/05/25 02:31:47;;;;;;;;;;;461.50;2380.80;;;;;;5118514;28;20265;-86
2022/05/25 02:34:16;;;;;;;;;;;461.40;2380.80;;;;;;5118527;28;19915;-84
2022/05/25 02:36:43;;;;;;;;;;;461.50;2380.80;;;;;;5118531;28;19929;-81
2022/05/25 02:39:10;;;;;;;;;;;461.20;2380.80;;;;;;5117348;28;19915;-81
2022/05/25 02:41:42;;;;;;;;;;;461.30;2380.80;;;;;;5118782;28;19903;-82
2022/05/25 02:44:08;;;;;;;;;;;460.90;2380.80;;;;;;5117505;28;19904;-82
2022/05/25 02:46:34;;;;;;;;;;;460.90;2380.80;;;;;;5117661;28;19990;-81
2022/05/25 02:48:59;;;;;;;;;;;461.00;2380.80;;;;;;5117256;28;19947;-82
2022/05/25 02:51:25;;;;;;;;;;;461.00;2380.80;;;;;;5116872;28;19919;-82
2022/05/25 02:53:51;;;;;;;;;;;461.10;2380.80;;;;;;5117174;28;19961;-81
2022/05/25 02:56:16;;;;;;;;;;;461.20;2380.80;;;;;;5118841;28;20263;-82
2022/05/25 02:58:42;;;;;;;;;;;461.40;2380.80;;;;;;5116879;28;19910;-81
2022/05/25 03:01:07;;;;;;;;;;;461.40;2380.80;;;;;;5118384;28;20302;-81
2022/05/25 03:03:35;;;;;;;;;;;461.50;2380.80;;;;;;5116918;28;19954;-82
2022/05/25 03:06:01;;;;;;;;;;;461.60;2380.80;;;;;;5116983;28;20367;-81
2022/05/25 03:08:27;;;;;;;;;;;461.30;2380.80;;;;;;5118012;28;19903;-81
2022/05/25 03:10:53;;;;;;;;;;;461.20;2380.80;;;;;;5116565;28;19904;-81
2022/05/25 03:13:18;;;;;;;;;;;461.40;2380.80;;;;;;5118096;28;19915;-81
2022/05/25 03:15:44;;;;;;;;;;;461.30;2380.80;;;;;;5116869;28;19903;-82
2022/05/25 03:18:10;;;;;;;;;;;461.40;2380.80;;;;;;5117993;28;20218;-81
2022/05/25 03:20:35;;;;;;;;;;;461.20;2380.80;;;;;;5118456;28;19904;-82
2022/05/25 03:23:01;;;;;;;;;;;461.40;2380.80;;;;;;5117914;28;19904;-81
2022/05/25 03:25:26;;;;;;;;;;;461.20;2380.80;;;;;;5116315;28;19919;-82
2022/05/25 03:27:52;;;;;;;;;;;461.10;2380.80;;;;;;5116623;28;20310;-81
2022/05/25 03:30:20;;;;;;;;;;;461.30;2380.80;;;;;;5116809;28;19954;-82
2022/05/25 03:32:45;;;;;;;;;;;461.40;2380.80;;;;;;5116120;28;19911;-81
2022/05/25 03:35:11;;;;;;;;;;;461.20;2380.80;;;;;;5117159;28;19969;-81
2022/05/25 03:37:37;;;;;;;;;;;460.90;2380.80;;;;;;5116091;28;19912;-82
2022/05/25 03:40:04;;;;;;;;;;;460.80;2380.80;;;;;;5115952;28;20008;-82
2022/05/25 03:42:30;;;;;;;;;;;461.10;2380.80;;;;;;5116393;28;19912;-81
2022/05/25 03:44:56;;;;;;;;;;;461.10;2380.80;;;;;;5116261;28;19994;-82
2022/05/25 03:47:21;;;;;;;;;;;461.20;2380.80;;;;;;5115821;28;20344;-81
2022/05/25 03:49:47;;;;;;;;;;;461.00;2380.80;;;;;;5116519;28;19910;-82
2022/05/25 03:52:18;;;;;;;;;;;460.80;2380.80;;;;;;5117341;27;20356;-82
2022/05/25 03:54:44;;;;;;;;;;;460.90;2380.80;;;;;;5116043;28;20345;-81
2022/05/25 03:57:10;;;;;;;;;;;461.00;2380.80;;;;;;5115800;28;19994;-81
2022/05/25 03:59:35;;;;;;;;;;;461.00;2380.80;;;;;;5116848;28;19903;-81
2022/05/25 04:02:01;;;;;;;;;;;461.00;2380.80;;;;;;5115853;28;19904;-82
2022/05/25 04:04:26;;;;;;;;;;;461.20;2380.80;;;;;;5116024;28;19946;-82
2022/05/25 04:06:52;;;;;;;;;;;461.30;2380.80;;;;;;5115576;28;19904;-81
2022/05/25 04:09:18;;;;;;;;;;;461.50;2380.80;;;;;;5115785;28;20252;-82
2022/05/25 04:11:43;;;;;;;;;;;461.70;2380.80;;;;;;5115553;28;19914;-81
2022/05/25 04:14:09;;;;;;;;;;;461.70;2380.80;;;;;;5116584;28;19952;-82
2022/05/25 04:16:35;;;;;;;;;;;461.60;2380.80;;;;;;5115531;28;19910;-81
2022/05/25 04:19:01;;;;;;;;;;;461.50;2380.80;;;;;;5116829;27;19908;-82
2022/05/25 04:21:27;;;;;;;;;;;461.50;2380.80;;;;;;5115219;28;20276;-82
2022/05/25 04:23:52;;;;;;;;;;;461.50;2380.80;;;;;;5116595;28;19903;-82
2022/05/25 04:26:18;;;;;;;;;;;486.40;2380.80;;;;;;5115387;28;20379;-82
2022/05/25 04:28:44;;;;;;;;;;;486.50;2380.80;;;;;;5114886;28;20334;-82
2022/05/25 04:31:10;;;;;;;;;;;486.70;2380.80;;;;;;5115340;28;20037;-82
2022/05/25 04:33:36;;;;;;;;;;;486.80;2380.80;;;;;;5115348;28;20002;-82
2022/05/25 04:36:03;;;;;;;;;;;486.80;2380.80;;;;;;5115177;28;19998;-81
2022/05/25 04:38:28;;;;;;;;;;;486.80;2380.80;;;;;;5114976;28;19944;-82
2022/05/25 04:40:54;;;;;;;;;;;486.60;2380.80;;;;;;5116857;28;20330;-81
2022/05/25 04:43:21;;;;;;;;;;;486.60;2380.80;;;;;;5116476;28;20263;-81
2022/05/25 04:45:48;;;;;;;;;;;486.50;2380.80;;;;;;5114360;28;19908;-80
2022/05/25 04:48:14;;;;;;;;;;;486.60;2380.80;;;;;;5116200;28;19998;-82
2022/05/25 04:50:40;;;;;;;;;;;486.40;2380.80;;;;;;5114815;28;19946;-81
2022/05/25 04:53:06;;;;;;;;;;;486.50;2380.80;;;;;;5115888;28;20428;-81
2022/05/25 04:58:21;;;;;;;;;;;486.70;2380.80;;;;;;5116329;28;19995;-81
2022/05/25 05:00:46;;;;;;;;;;;486.70;2380.80;;;;;;5114784;28;19955;-81
2022/05/25 05:03:12;;;;;;;;;;;461.70;2380.80;;;;;;5114840;28;20379;-81
2022/05/25 05:05:38;;;;;;;;;;;461.70;2380.80;;;;;;5114965;28;20345;-81
2022/05/25 05:08:05;;;;;;;;;;;486.40;2380.80;;;;;;5114811;28;20006;-81
2022/05/25 05:10:30;;;;;;;;;;;486.40;2380.80;;;;;;5114625;28;19903;-81
2022/05/25 05:12:56;;;;;;;;;;;486.60;2380.80;;;;;;5114548;28;20004;-81
2022/05/25 05:15:22;;;;;;;;;;;486.70;2380.80;;;;;;5116059;28;19996;-81
2022/05/25 05:17:47;;;;;;;;;;;486.90;2380.80;;;;;;5114296;28;19990;-81
2022/05/25 05:20:13;;;;;;;;;;;486.80;2380.80;;;;;;5114642;28;19904;-82
2022/05/25 05:22:39;;;;;;;;;;;486.80;2380.80;;;;;;5114513;28;19907;-81
2022/05/25 05:25:05;;;;;;;;;;;486.70;2380.80;;;;;;5114411;28;19911;-82
2022/05/25 05:27:30;;;;;;;;;;;486.80;2380.80;;;;;;5114317;28;19914;-82
2022/05/25 05:29:59;;;;;;;;;;;486.60;2380.80;;;;;;5114357;28;20362;-82
2022/05/25 05:32:25;;;;;;;;;;;486.60;2380.80;;;;;;5113896;28;19965;-82
2022/05/25 05:34:51;;;;;;;;;;;486.80;2380.80;;;;;;5114511;28;19947;-81
2022/05/25 05:37:23;;;;;;;;;;;486.70;2380.80;;;;;;5115330;28;19907;-82
2022/05/25 05:39:52;;;;;;;;;;;486.80;2380.80;;;;;;5115185;28;19938;-82
2022/05/25 05:42:19;;;;;;;;;;;486.70;2380.80;;;;;;5114064;28;19907;-82
2022/05/25 05:44:47;;;;;;;;;;;486.80;2380.80;;;;;;5113460;28;20006;-82
2022/05/25 05:47:16;;;;;;;;;;;486.70;2380.80;;;;;;5113901;28;20408;-82
2022/05/25 05:49:42;;;;;;;;;;;486.80;2380.80;;;;;;5113929;28;19910;-81
2022/05/25 05:52:08;;;;;;;;;;;486.80;2380.80;;;;;;5114454;28;19908;-81
2022/05/25 05:54:33;;;;;;;;;;;486.70;2380.80;;;;;;5113636;28;20348;-82
2022/05/25 05:56:59;;;;;;;;;;;486.70;2380.80;;;;;;5113570;28;19904;-82
2022/05/25 05:59:25;;;;;;;;;;;486.70;2380.80;;;;;;5115599;28;19929;-81
2022/05/25 06:01:50;;;;;;;;;;;486.80;2380.80;;;;;;5113855;28;19907;-82
2022/05/25 06:04:16;;;;;;;;;;;486.80;2380.80;;;;;;5113964;28;20049;-81
2022/05/25 06:06:42;;;;;;;;;;;486.60;2380.80;;;;;;5113478;28;20242;-80
2022/05/25 06:09:08;;;;;;;;;;;486.80;2380.80;;;;;;5115362;28;19904;-82
2022/05/25 06:11:37;;;;;;;;;;;486.90;2380.80;;;;;;5113584;28;19911;-81
2022/05/25 06:14:02;;;;;;;;;;;486.80;2380.80;;;;;;5114509;28;19958;-82
2022/05/25 06:19:25;;;;;;;;;;;487.00;2380.80;;;;;;5114723;28;19911;-81
2022/05/25 06:22:02;;;;;;;;;;;487.20;2380.80;;;;;;5113171;28;19915;-80
2022/05/25 06:24:28;;;;;;;;;;;487.30;2380.80;;;;;;5114468;28;19956;-81
2022/05/25 06:26:54;;;;;;;;;;;512.00;2380.80;;;;;;5113711;28;19907;-80
2022/05/25 06:29:21;;;;;;;;;;;512.00;2380.80;;;;;;5113777;28;19911;-81
2022/05/25 06:31:47;;;;;;;;;;;512.20;2380.80;;;;;;5113289;28;19912;-80
2022/05/25 06:34:12;;;;;;;;;;;512.50;2380.80;;;;;;5113966;28;19907;-80
2022/05/25 06:36:38;;;;;;;;;;;512.60;2380.80;;;;;;5113530;28;20482;-82
2022/05/25 06:39:04;;;;;;;;;;;512.70;2380.80;;;;;;5114320;28;19923;-81
2022/05/25 06:41:29;;;;;;;;;;;512.90;2380.80;;;;;;5114358;28;19914;-81
2022/05/25 06:43:56;;;;;;;;;;;537.80;2406.40;;;;;;5113354;28;20385;-81
2022/05/25 06:46:22;;;;;;;;;;;537.90;2406.40;;;;;;5114941;28;20459;-81
2022/05/25 06:48:52;;;;;;;;;;;538.10;2406.40;;;;;;5113257;28;19907;-80
2022/05/25 06:51:28;;;;;;;;;;;538.10;2406.40;;;;;;5113229;28;19918;-81
2022/05/25 06:53:54;;;;;;;;;;;538.40;2406.40;;;;;;5112836;28;19915;-81
2022/05/25 06:56:20;;;;;;;;;;;563.20;2432.00;;;;;;5114026;28;19904;-81
2022/05/25 06:58:47;;;;;;;;;;;563.30;2432.00;;;;;;5110322;28;19904;-81
2022/05/25 07:01:12;;;;;;;;;;;563.50;2432.00;;;;;;5093335;28;19915;-81
2022/05/25 07:03:38;;;;;;;;;;;563.70;2432.00;;;;;;5109878;28;19907;-81
2022/05/25 07:06:05;;;;;;;;;;;564.00;2432.00;;;;;;5109660;28;19908;-82
2022/05/25 07:08:30;;;;;;;;;;;588.80;2432.00;;;;;;5110363;28;19904;-82
2022/05/25 07:10:56;;;;;;;;;;;589.30;2432.00;;;;;;5113520;28;19904;-81
2022/05/25 07:13:22;;;;;;;;;;;589.60;2432.00;;;;;;5113262;28;19912;-81
2022/05/25 07:15:48;;;;;;;;;;;589.50;2432.00;;;;;;5113139;28;19911;-81
2022/05/25 07:18:14;;;;;;;;;;;589.60;2432.00;;;;;;5113309;28;19904;-81
2022/05/25 07:20:40;;;;;;;;;;;589.70;2432.00;;;;;;5113301;28;19911;-81
2022/05/25 07:23:05;;;;;;;;;;;614.50;2432.00;;;;;;5112966;28;20374;-81
2022/05/25 07:25:31;;;;;;;;;;;589.60;2432.00;;;;;;5113049;28;19908;-81
2022/05/25 07:27:57;;;;;;;;;;;614.50;2432.00;;;;;;5113139;28;19930;-80
2022/05/25 07:30:22;;;;;;;;;;;614.40;2432.00;;;;;;5100620;28;20277;-81
2022/05/25 07:32:48;;;;;;;;;;;614.40;2432.00;;;;;;5095902;28;19908;-81
2022/05/25 07:35:15;;;;;;;;;;;614.40;2432.00;;;;;;5096034;28;20345;-79
2022/05/25 07:37:43;;;;;;;;;;;614.50;2432.00;;;;;;5096804;28;19908;-80
2022/05/25 07:40:09;;;;;;;;;;;614.80;2432.00;;;;;;5096790;28;19904;-80
2022/05/25 07:42:35;;;;;;;;;;;615.00;2432.00;;;;;;5095624;28;19904;-79
2022/05/25 07:45:03;;;;;;;;;;;615.20;2432.00;;;;;;5095435;28;19931;-79
2022/05/25 07:47:30;;;;;;;;;;;615.30;2432.00;;;;;;5096091;28;19904;-80
2022/05/25 07:49:56;;;;;;;;;;;640.30;2432.00;;;;;;5095657;28;19906;-78
2022/05/25 07:52:22;;;;;;;;;;;640.30;2432.00;;;;;;5095293;28;19934;-80
2022/05/25 07:54:48;;;;;;;;;;;640.40;2432.00;;;;;;5095906;28;19908;-79
2022/05/25 07:57:14;;;;;;;;;;;640.50;2432.00;;;;;;5095615;28;19969;-80
2022/05/25 07:59:40;;;;;;;;;;;640.70;2432.00;;;;;;5095241;28;19904;-80
2022/05/25 08:07:44;;;;;;;;;;;640.90;2432.00;;;;;;5096736;28;19911;-80
2022/05/25 08:10:12;;;;;;;;;;;665.70;2432.00;;;;;;5095350;28;19904;-79
2022/05/25 08:12:38;;;;;;;;;;;665.70;2432.00;;;;;;5096440;28;19908;-80
2022/05/25 08:15:05;;;;;;;;;;;665.70;2432.00;;;;;;5095198;28;19908;-78
2022/05/25 08:17:31;;;;;;;;;;;665.90;2432.00;;;;;;5095420;28;19908;-80
2022/05/25 08:19:56;;;;;;;;;;;666.00;2432.00;;;;;;5097645;28;19904;-80
2022/05/25 08:22:22;;;;;;;;;;;666.00;2432.00;;;;;;5094391;28;19958;-80
2022/05/25 08:24:48;;;;;;;;;;;666.50;2432.00;;;;;;5095127;28;19904;-80
2022/05/25 08:27:14;;;;;;;;;;;691.30;2432.00;;;;;;5095229;28;19911;-80
2022/05/25 08:29:39;;;;;;;;;;;691.50;2432.00;;;;;;5107321;28;19915;-79
2022/05/25 08:32:05;;;;;;;;;;;691.40;2432.00;;;;;;5116659;28;19987;-80
2022/05/25 08:34:31;;;;;;;;;;;691.70;2432.00;;;;;;5115390;28;20319;-82
2022/05/25 08:36:57;;;;;;;;;;;691.70;2380.80;;;;;;5094988;28;19911;-81
2022/05/25 08:39:22;;;;;;;;;;;691.80;2329.60;;;;;;5094752;28;20257;-81
2022/05/25 08:41:50;;;;;;;;;;;716.80;2355.20;;;;;;5095510;28;19904;-83
2022/05/25 08:44:16;;;;;;;;;;;716.80;2304.00;;;;;;5104686;28;20018;-84
2022/05/25 08:46:41;;;;;;;;;;;691.80;2252.80;;;;;;5120274;28;19926;-84
2022/05/25 08:49:10;;;;;;;;;;;691.80;2252.80;;;;;;5119982;28;19896;-82
2022/05/25 08:51:45;;;;;;;;;;;692.00;2227.20;;;;;;5098903;28;19907;-82
2022/05/25 08:54:11;;;;;;;;;;;717.20;2227.20;;;;;;5095922;28;19963;-82
2022/05/25 08:56:41;;;;;;;;;;;717.20;2201.60;;;;;;5096009;28;20298;-81
2022/05/25 08:59:16;;;;;;;;;;;717.10;2176.00;;;;;;5095422;28;19958;-79
2022/05/25 09:01:44;;;;;;;;;;;717.10;2176.00;;;;;;5095434;28;19908;-80
2022/05/25 09:04:23;;;;;;;;;;;717.40;2150.40;;;;;;5095733;28;19904;-76
2022/05/25 09:06:53;;;;;;;;;;;717.10;2150.40;;;;;;5094257;28;19911;-80
2022/05/25 09:09:34;;;;;;;;;;;717.20;2150.40;;;;;;5094295;28;19904;-79
2022/05/25 09:12:24;;;;;;;;;;;717.40;2124.80;;;;;;5093725;28;19908;-79
2022/05/25 09:14:49;;;;;;;;;;;717.70;2073.60;;;;;;5086283;28;19914;-79
2022/05/25 09:17:21;;;;;;;;;;;717.30;2099.20;;;;;;5093897;28;19986;-79
2022/05/25 09:19:47;;;;;;;;;;;717.20;2150.40;;;;;;5093481;28;19908;-78
2022/05/25 09:22:16;;;;;;;;;;;717.20;2124.80;;;;;;5093747;28;19919;-77
2022/05/25 09:24:42;;;;;;;;;;;717.10;2176.00;;;;;;5093830;28;19931;-82
2022/05/25 09:27:09;;;;;;;;;;;717.00;2176.00;;;;;;5093502;28;20388;-82
2022/05/25 09:29:34;;;;;;;;;;;717.50;2176.00;;;;;;5093722;28;19904;-80
2022/05/25 09:32:19;;;;;;;;;;;717.70;2176.00;;;;;;5093228;28;19915;-81
2022/05/25 09:34:49;;;;;;;;;;;742.60;2176.00;;;;;;5093589;28;19915;-78
2022/05/25 09:37:22;;;;;;;;;;;742.50;2201.60;;;;;;5093995;28;19995;-81
2022/05/25 09:39:51;;;;;;;;;;;742.80;2150.40;;;;;;5093799;28;19916;-83
2022/05/25 09:42:19;;;;;;;;;;;742.80;2176.00;;;;;;5093732;28;19955;-82
2022/05/25 09:44:53;;;;;;;;;;;742.80;2201.60;;;;;;5095139;28;19994;-82
2022/05/25 09:47:23;;;;;;;;;;;742.80;2176.00;;;;;;5094133;28;19911;-83
2022/05/25 09:49:51;;;;;;;;;;;742.70;2176.00;;;;;;5094068;28;20407;-82
2022/05/25 09:52:30;;;;;;;;;;;742.60;2176.00;;;;;;5093948;28;20003;-84
2022/05/25 09:55:01;;;;;;;;;;;742.60;2201.60;;;;;;5095215;28;19922;-83
2022/05/25 09:57:30;;;;;;;;;;;742.60;2227.20;;;;;;5099365;28;19945;-82
2022/05/25 10:00:03;;;;;;;;;;;742.50;2227.20;;;;;;5114278;28;19908;-82
2022/05/25 10:02:50;;;;;;;;;;;742.50;2227.20;;;;;;5114158;28;20003;-83
2022/05/25 10:05:23;;;;;;;;;;;742.60;2227.20;;;;;;5113574;28;19911;-81
2022/05/25 10:07:50;;;;;;;;;;;742.70;2227.20;;;;;;5113837;28;19904;-83
2022/05/25 10:10:22;;;;;;;;;;;742.80;2252.80;;;;;;5114301;28;19904;-83
2022/05/25 10:12:58;;;;;;;;;;;742.90;2252.80;;;;;;5113841;28;19911;-84
2022/05/25 10:15:33;;;;;;;;;;;743.00;2252.80;;;;;;5113763;28;19907;-83
2022/05/25 10:17:59;;;;;;;;;;;743.00;2227.20;;;;;;5113622;28;19903;-83
2022/05/25 10:20:40;;;;;;;;;;;743.00;2227.20;;;;;;5113924;28;19911;-81
2022/05/25 10:23:22;;;;;;;;;;;742.90;2227.20;;;;;;5113422;28;19903;-80
2022/05/25 10:25:48;;;;;;;;;;;743.00;2227.20;;;;;;5113739;28;19911;-83
2022/05/25 10:28:40;;;;;;;;;;;742.90;2227.20;;;;;;5114461;28;19903;-81
2022/05/25 10:36:56;;;;;;;;;;;743.20;2201.60;;;;;;5114162;28;19914;-81
2022/05/25 10:39:23;;;;;;;;;;;768.00;2176.00;;;;;;5113243;28;20006;-82
2022/05/25 10:42:06;;;;;;;;;;;768.80;2150.40;;;;;;5113191;28;19904;-82
2022/05/25 10:44:52;;;;;;;;;;;768.70;2124.80;;;;;;5116938;28;20362;-83
2022/05/25 10:47:27;;;;;;;;;;;768.40;2150.40;;;;;;5107044;28;19903;-84
2022/05/25 10:49:53;;;;;;;;;;;768.60;2124.80;;;;;;5117213;28;19903;-83
2022/05/25 10:52:24;;;;;;;;;;;768.90;2073.60;;;;;;5117344;28;20009;-83
2022/05/25 10:54:54;;;;;;;;;;;793.70;2099.20;;;;;;5118702;28;19907;-82
2022/05/25 10:57:32;;;;;;;;;;;794.20;2022.40;;;;;;5117128;28;19904;-82
2022/05/25 11:00:07;;;;;;;;;;;819.30;2048.00;;;;;;5117194;28;19904;-84
2022/05/25 11:02:42;;;;;;;;;;;819.80;1945.60;;;;;;5117535;28;20398;-83
2022/05/25 11:05:39;;;;;;;;;;;819.90;1971.20;;;;;;5117138;28;19904;-84
2022/05/25 11:08:14;;;;;;;;;;;820.00;1920.00;;;;;;5064029;27;19904;-83
2022/05/25 11:10:45;;;;;;;;;;;819.60;1868.80;;;;;;5117163;28;19904;-83
2022/05/25 11:13:23;;;;;;;;;;;794.40;1894.40;;;;;;5117426;28;20357;-84
2022/05/25 11:15:49;;;;;;;;;;;794.50;1894.40;;;;;;5117402;28;19914;-85
2022/05/25 11:18:33;;;;;;;;;;;819.50;1920.00;;;;;;5117172;28;19904;-84
2022/05/25 11:21:05;;;;;;;;;;;844.80;1920.00;;;;;;5118397;28;20367;-85
2022/05/25 11:23:50;;;;;;;;;;;844.90;1868.80;;;;;;5117314;28;19908;-84
2022/05/25 11:26:25;;;;;;;;;;;820.10;1868.80;;;;;;5116948;28;19908;-85
2022/05/25 11:29:09;;;;;;;;;;;819.80;1868.80;;;;;;5116685;28;19911;-84
2022/05/25 11:31:37;;;;;;;;;;;819.40;1894.40;;;;;;5116592;28;20348;-84
2022/05/25 11:34:03;;;;;;;;;;;819.70;1894.40;;;;;;5116656;28;20345;-84
2022/05/25 11:36:28;;;;;;;;;;;819.90;1843.20;;;;;;5116901;28;19910;-85
2022/05/25 11:39:02;;;;;;;;;;;819.80;1868.80;;;;;;5116750;28;19965;-86
2022/05/25 11:41:28;;;;;;;;;;;820.00;1868.80;;;;;;5117193;28;20317;-85
2022/05/25 11:44:20;;;;;;;;;;;819.70;1868.80;;;;;;5116541;28;19904;-85
2022/05/25 11:46:50;;;;;;;;;;;819.60;1894.40;;;;;;5113082;28;19903;-84
2022/05/25 11:49:18;;;;;;;;;;;819.50;1894.40;;;;;;5116665;28;19973;-84
2022/05/25 11:51:52;;;;;;;;;;;819.70;1894.40;;;;;;5116606;28;20345;-85
2022/05/25 11:54:17;;;;;;;;;;;820.10;1868.80;;;;;;5116723;28;20330;-84
2022/05/25 11:56:59;;;;;;;;;;;845.10;1868.80;;;;;;5116608;28;19951;-83
2022/05/25 11:59:44;;;;;;;;;;;844.90;1868.80;;;;;;5116356;28;20371;-82
2022/05/25 12:02:16;;;;;;;;;;;845.30;1843.20;;;;;;5117729;28;19903;-83
2022/05/25 12:04:44;;;;;;;;;;;845.10;1843.20;;;;;;5115998;28;19974;-83
2022/05/25 12:07:16;;;;;;;;;;;845.20;1817.60;;;;;;5115800;28;19904;-83
2022/05/25 12:09:47;;;;;;;;;;;845.60;1792.00;;;;;;5116117;28;19956;-84
2022/05/25 12:12:27;;;;;;;;;;;845.60;1792.00;;;;;;5116466;28;20344;-85
2022/05/25 12:15:25;;;;;;;;;;;870.40;1740.80;;;;;;5116356;28;19908;-84
2022/05/25 12:17:59;;;;;;;;;;;870.70;1740.80;;;;;;5082657;28;19908;-82
2022/05/25 12:20:32;;;;;;;;;;;870.80;1689.60;;;;;;5115694;28;19906;-84
2022/05/25 12:22:59;;;;;;;;;;;870.70;1638.40;;;;;;5116101;28;19974;-84
2022/05/25 12:25:25;;;;;;;;;;;870.70;1664.00;;;;;;5115908;28;19934;-84
2022/05/25 12:27:52;;;;;;;;;;;871.20;1638.40;;;;;;5115955;28;19977;-84
2022/05/25 12:30:22;;;;;;;;;;;871.10;1612.80;;;;;;5115897;28;19946;-82
2022/05/25 12:32:48;;;;;;;;;;;896.20;1587.20;;;;;;5116580;28;19918;-83
2022/05/25 12:35:15;;;;;;;;;;;896.60;1510.40;;;;;;5115874;28;20417;-82
2022/05/25 12:37:42;;;;;;;;;;;896.90;1484.80;;;;;;5115323;28;20264;-83
2022/05/25 12:40:09;;;;;;;;;;;896.60;1484.80;;;;;;5115840;28;20004;-83
2022/05/25 12:42:39;;;;;;;;;;;896.70;1459.20;;;;;;5115619;28;19997;-83
2022/05/25 12:50:41;;;;;;;;;;;921.70;1536.00;;;;;;5116398;28;20279;-83
2022/05/25 12:53:25;;;;;;;;;;;922.00;1536.00;;;;;;5115114;28;19908;-83
2022/05/25 12:55:56;;;;;;;;;;;922.10;1536.00;;;;;;5115037;28;19923;-82
2022/05/25 12:58:32;;;;;;;;;;;921.80;1510.40;;;;;;5115423;28;20491;-81
2022/05/25 13:01:06;;;;;;;;;;;921.80;1536.00;;;;;;5115254;28;19904;-83
2022/05/25 13:03:39;;;;;;;;;;;896.90;1510.40;;;;;;5114804;28;19963;-83
2022/05/25 13:06:05;;;;;;;;;;;921.70;1484.80;;;;;;5114777;28;19903;-83
2022/05/25 13:08:46;;;;;;;;;;;922.00;1510.40;;;;;;5114840;28;19916;-83
2022/05/25 13:11:30;;;;;;;;;;;922.30;1484.80;;;;;;5116070;28;20264;-83
2022/05/25 13:13:57;;;;;;;;;;;922.40;1459.20;;;;;;5114973;28;19912;-84
2022/05/25 13:16:41;;;;;;;;;;;922.40;1433.60;;;;;;5114718;28;20115;-83
2022/05/25 13:19:15;;;;;;;;;;;922.30;1459.20;;;;;;5115078;28;19911;-84
2022/05/25 13:21:43;;;;;;;;;;;922.10;1459.20;;;;;;5114690;28;19922;-83
2022/05/25 13:24:28;;;;;;;;;;;922.50;1433.60;;;;;;5114504;28;19904;-82
2022/05/25 13:27:06;;;;;;;;;;;947.20;1433.60;;;;;;5113625;28;19904;-83
2022/05/25 13:29:44;;;;;;;;;;;922.50;1459.20;;;;;;5114188;28;19992;-82
2022/05/25 13:32:13;;;;;;;;;;;922.30;1459.20;;;;;;5114067;28;20245;-83
2022/05/25 13:34:39;;;;;;;;;;;947.20;1433.60;;;;;;5114150;28;20353;-83
2022/05/25 13:37:09;;;;;;;;;;;947.30;1433.60;;;;;;5114242;28;19904;-82
2022/05/25 13:39:35;;;;;;;;;;;922.50;1408.00;;;;;;5113779;28;19923;-83
2022/05/25 13:42:10;;;;;;;;;;;922.20;1433.60;;;;;;5114270;28;20353;-82
2022/05/25 13:44:45;;;;;;;;;;;947.20;1433.60;;;;;;5114069;28;20341;-83
2022/05/25 13:47:37;;;;;;;;;;;947.50;1408.00;;;;;;5114507;28;19903;-83
2022/05/25 13:50:02;;;;;;;;;;;947.70;1408.00;;;;;;5110902;28;19904;-82
2022/05/25 13:52:29;;;;;;;;;;;947.90;1382.40;;;;;;5113853;28;19914;-82
2022/05/25 13:54:56;;;;;;;;;;;948.00;1382.40;;;;;;5113947;28;20045;-82
2022/05/25 13:57:21;;;;;;;;;;;948.00;1356.80;;;;;;5113892;28;19907;-82
2022/05/25 13:59:47;;;;;;;;;;;948.00;1382.40;;;;;;5113958;28;19952;-82
2022/05/25 14:02:19;;;;;;;;;;;948.10;1382.40;;;;;;5114267;28;19904;-82
2022/05/25 14:04:45;;;;;;;;;;;947.90;1356.80;;;;;;5114372;28;19911;-83
2022/05/25 14:07:21;;;;;;;;;;;947.40;1382.40;;;;;;5113892;28;19903;-85
2022/05/25 14:12:31;;;;;;;;;;;947.90;1356.80;;;;;;5114761;28;19918;-83
2022/05/25 14:14:57;;;;;;;;;;;947.90;1305.60;;;;;;5113796;28;19908;-83
2022/05/25 14:17:24;;;;;;;;;;;948.00;1280.00;;;;;;5113661;28;19911;-81
2022/05/25 14:20:02;;;;;;;;;;;948.10;1254.40;;;;;;5113682;28;19910;-83
2022/05/25 14:22:32;;;;;;;;;;;948.10;1280.00;;;;;;5113657;28;20340;-84